sensor_id;sensor_type;location;lat;lon;timestamp;pressure;altitude;pressure_sealevel;temperature
65823;BMP180;52585;47.566;19.056;2023-04-01T00:01:01;98962.40;;;11.30
65823;BMP180;52585;47.566;19.056;2023-04-01T00:03:28;98965.40;;;11.30
65823;BMP180;52585;47.566;19.056;2023-04-01T00:05:56;98957.40;;;11.30
65823;BMP180;52585;47.566;19.056;2023-04-01T00:08:22;98960.20;;;11.20
65823;BMP180;52585;47.566;19.056;2023-04-01T00:10:48;98953.60;;;11.20
65823;BMP180;52585;47.566;19.056;2023-04-01T00:13:14;98952.20;;;11.20
65823;BMP180;52585;47.566;19.056;2023-04-01T00:15:40;98957.80;;;11.12
65823;BMP180;52585;47.566;19.056;2023-04-01T00:18:06;98965.80;;;11.10
65823;BMP180;52585;47.566;19.056;2023-04-01T00:20:32;98967.00;;;11.10
65823;BMP180;52585;47.566;19.056;2023-04-01T00:22:58;98968.20;;;11.10
65823;BMP180;52585;47.566;19.056;2023-04-01T00:25:24;98962.40;;;11.08
65823;BMP180;52585;47.566;19.056;2023-04-01T00:27:50;98956.00;;;11.02
65823;BMP180;52585;47.566;19.056;2023-04-01T00:30:17;98963.80;;;11.00
65823;BMP180;52585;47.566;19.056;2023-04-01T00:32:43;98962.40;;;11.00
65823;BMP180;52585;47.566;19.056;2023-04-01T00:35:09;98964.60;;;11.00
65823;BMP180;52585;47.566;19.056;2023-04-01T00:37:37;98964.60;;;11.00
65823;BMP180;52585;47.566;19.056;2023-04-01T00:40:05;98961.00;;;11.00
65823;BMP180;52585;47.566;19.056;2023-04-01T00:42:32;98960.60;;;11.04
65823;BMP180;52585;47.566;19.056;2023-04-01T00:44:58;98953.80;;;11.02
65823;BMP180;52585;47.566;19.056;2023-04-01T00:47:26;98952.60;;;11.00
65823;BMP180;52585;47.566;19.056;2023-04-01T00:49:54;98954.20;;;11.00
65823;BMP180;52585;47.566;19.056;2023-04-01T00:52:24;98944.40;;;11.00
65823;BMP180;52585;47.566;19.056;2023-04-01T00:54:57;98943.40;;;11.06
65823;BMP180;52585;47.566;19.056;2023-04-01T00:57:34;98941.40;;;11.10
65823;BMP180;52585;47.566;19.056;2023-04-01T01:00:06;98939.20;;;11.10
65823;BMP180;52585;47.566;19.056;2023-04-01T01:02:35;98942.60;;;11.10
65823;BMP180;52585;47.566;19.056;2023-04-01T01:05:01;98940.60;;;11.10
65823;BMP180;52585;47.566;19.056;2023-04-01T01:16:16;98943.40;;;11.10
65823;BMP180;52585;47.566;19.056;2023-04-01T01:26:58;98935.80;;;11.10
65823;BMP180;52585;47.566;19.056;2023-04-01T01:35:58;98927.80;;;11.10
65823;BMP180;52585;47.566;19.056;2023-04-01T01:38:30;98930.80;;;11.10
65823;BMP180;52585;47.566;19.056;2023-04-01T01:40:58;98931.00;;;11.10
65823;BMP180;52585;47.566;19.056;2023-04-01T01:43:32;98927.40;;;11.10
65823;BMP180;52585;47.566;19.056;2023-04-01T01:46:05;98932.80;;;11.06
65823;BMP180;52585;47.566;19.056;2023-04-01T01:48:34;98936.80;;;11.02
65823;BMP180;52585;47.566;19.056;2023-04-01T01:51:02;98940.00;;;11.10
65823;BMP180;52585;47.566;19.056;2023-04-01T01:53:28;98940.20;;;11.10
65823;BMP180;52585;47.566;19.056;2023-04-01T01:55:54;98930.40;;;11.06
65823;BMP180;52585;47.566;19.056;2023-04-01T01:58:29;98930.00;;;11.04
65823;BMP180;52585;47.566;19.056;2023-04-01T02:01:00;98932.00;;;11.00
65823;BMP180;52585;47.566;19.056;2023-04-01T02:03:34;98935.00;;;11.00
65823;BMP180;52585;47.566;19.056;2023-04-01T02:06:08;98934.60;;;11.00
65823;BMP180;52585;47.566;19.056;2023-04-01T02:08:49;98927.40;;;11.00
65823;BMP180;52585;47.566;19.056;2023-04-01T02:11:34;98927.80;;;11.00
65823;BMP180;52585;47.566;19.056;2023-04-01T02:17:00;98921.40;;;11.00
65823;BMP180;52585;47.566;19.056;2023-04-01T02:19:42;98921.20;;;11.00
65823;BMP180;52585;47.566;19.056;2023-04-01T02:22:15;98922.60;;;11.00
65823;BMP180;52585;47.566;19.056;2023-04-01T02:24:43;98920.40;;;10.90
65823;BMP180;52585;47.566;19.056;2023-04-01T02:27:10;98913.40;;;10.90
65823;BMP180;52585;47.566;19.056;2023-04-01T02:29:36;98911.80;;;10.90
65823;BMP180;52585;47.566;19.056;2023-04-01T02:32:03;98912.60;;;10.90
65823;BMP180;52585;47.566;19.056;2023-04-01T02:34:30;98909.80;;;10.90
65823;BMP180;52585;47.566;19.056;2023-04-01T02:36:57;98909.00;;;10.90
65823;BMP180;52585;47.566;19.056;2023-04-01T02:39:22;98904.40;;;10.88
65823;BMP180;52585;47.566;19.056;2023-04-01T02:41:51;98898.20;;;10.86
65823;BMP180;52585;47.566;19.056;2023-04-01T02:44:16;98900.80;;;10.80
65823;BMP180;52585;47.566;19.056;2023-04-01T02:46:42;98903.40;;;10.80
65823;BMP180;52585;47.566;19.056;2023-04-01T02:49:08;98897.80;;;10.80
65823;BMP180;52585;47.566;19.056;2023-04-01T02:51:34;98900.00;;;10.80
65823;BMP180;52585;47.566;19.056;2023-04-01T02:54:00;98895.20;;;10.78
65823;BMP180;52585;47.566;19.056;2023-04-01T02:56:26;98898.60;;;10.70
65823;BMP180;52585;47.566;19.056;2023-04-01T02:58:53;98903.20;;;10.70
65823;BMP180;52585;47.566;19.056;2023-04-01T03:01:20;98900.60;;;10.70
65823;BMP180;52585;47.566;19.056;2023-04-01T03:03:46;98901.20;;;10.68
65823;BMP180;52585;47.566;19.056;2023-04-01T03:06:15;98907.40;;;10.60
65823;BMP180;52585;47.566;19.056;2023-04-01T03:08:42;98909.20;;;10.60
65823;BMP180;52585;47.566;19.056;2023-04-01T03:11:10;98906.40;;;10.50
65823;BMP180;52585;47.566;19.056;2023-04-01T03:13:36;98909.00;;;10.50
65823;BMP180;52585;47.566;19.056;2023-04-01T03:16:02;98911.40;;;10.44
65823;BMP180;52585;47.566;19.056;2023-04-01T03:18:28;98905.60;;;10.40
65823;BMP180;52585;47.566;19.056;2023-04-01T03:20:53;98901.80;;;10.40
65823;BMP180;52585;47.566;19.056;2023-04-01T03:23:19;98899.60;;;10.30
65823;BMP180;52585;47.566;19.056;2023-04-01T03:25:47;98897.40;;;10.30
65823;BMP180;52585;47.566;19.056;2023-04-01T03:28:13;98896.40;;;10.30
65823;BMP180;52585;47.566;19.056;2023-04-01T03:30:39;98909.80;;;10.30
65823;BMP180;52585;47.566;19.056;2023-04-01T03:33:06;98916.60;;;10.20
65823;BMP180;52585;47.566;19.056;2023-04-01T03:35:32;98920.60;;;10.20
65823;BMP180;52585;47.566;19.056;2023-04-01T03:37:58;98927.40;;;10.20
65823;BMP180;52585;47.566;19.056;2023-04-01T03:40:24;98924.60;;;10.20
65823;BMP180;52585;47.566;19.056;2023-04-01T03:42:51;98927.00;;;10.20
65823;BMP180;52585;47.566;19.056;2023-04-01T03:45:18;98931.00;;;10.20
65823;BMP180;52585;47.566;19.056;2023-04-01T03:47:43;98928.00;;;10.20
65823;BMP180;52585;47.566;19.056;2023-04-01T03:50:10;98933.80;;;10.20
65823;BMP180;52585;47.566;19.056;2023-04-01T03:52:36;98940.20;;;10.20
65823;BMP180;52585;47.566;19.056;2023-04-01T03:55:02;98929.40;;;10.10
65823;BMP180;52585;47.566;19.056;2023-04-01T03:57:30;98930.40;;;10.10
65823;BMP180;52585;47.566;19.056;2023-04-01T03:59:56;98933.80;;;10.10
65823;BMP180;52585;47.566;19.056;2023-04-01T04:02:21;98938.80;;;10.10
65823;BMP180;52585;47.566;19.056;2023-04-01T04:04:47;98935.40;;;10.10
65823;BMP180;52585;47.566;19.056;2023-04-01T04:07:13;98942.40;;;10.10
65823;BMP180;52585;47.566;19.056;2023-04-01T04:09:39;98944.60;;;10.10
65823;BMP180;52585;47.566;19.056;2023-04-01T04:12:05;98947.40;;;10.10
65823;BMP180;52585;47.566;19.056;2023-04-01T04:14:31;98943.40;;;10.10
65823;BMP180;52585;47.566;19.056;2023-04-01T04:16:58;98938.00;;;10.00
65823;BMP180;52585;47.566;19.056;2023-04-01T04:19:23;98938.20;;;10.00
65823;BMP180;52585;47.566;19.056;2023-04-01T04:21:49;98939.40;;;10.00
65823;BMP180;52585;47.566;19.056;2023-04-01T04:24:14;98933.60;;;10.00
65823;BMP180;52585;47.566;19.056;2023-04-01T04:26:40;98933.40;;;10.00
65823;BMP180;52585;47.566;19.056;2023-04-01T04:29:06;98939.60;;;10.00
65823;BMP180;52585;47.566;19.056;2023-04-01T04:31:32;98941.20;;;10.00
65823;BMP180;52585;47.566;19.056;2023-04-01T04:34:01;98943.40;;;10.08
65823;BMP180;52585;47.566;19.056;2023-04-01T04:36:27;98937.80;;;10.02
65823;BMP180;52585;47.566;19.056;2023-04-01T04:38:52;98931.60;;;10.00
65823;BMP180;52585;47.566;19.056;2023-04-01T04:41:19;98929.60;;;10.00
65823;BMP180;52585;47.566;19.056;2023-04-01T04:43:54;98930.60;;;10.00
65823;BMP180;52585;47.566;19.056;2023-04-01T04:46:21;98933.60;;;10.00
65823;BMP180;52585;47.566;19.056;2023-04-01T04:48:47;98928.80;;;10.00
65823;BMP180;52585;47.566;19.056;2023-04-01T04:51:18;98926.80;;;10.00
65823;BMP180;52585;47.566;19.056;2023-04-01T04:53:45;98930.00;;;10.00
65823;BMP180;52585;47.566;19.056;2023-04-01T04:56:11;98929.80;;;10.00
65823;BMP180;52585;47.566;19.056;2023-04-01T04:58:39;98932.00;;;10.00
65823;BMP180;52585;47.566;19.056;2023-04-01T05:01:10;98927.60;;;9.96
65823;BMP180;52585;47.566;19.056;2023-04-01T05:03:37;98926.60;;;9.90
65823;BMP180;52585;47.566;19.056;2023-04-01T05:06:04;98927.40;;;9.90
65823;BMP180;52585;47.566;19.056;2023-04-01T05:08:30;98924.60;;;9.90
65823;BMP180;52585;47.566;19.056;2023-04-01T05:10:56;98929.20;;;9.90
65823;BMP180;52585;47.566;19.056;2023-04-01T05:13:21;98933.80;;;9.90
65823;BMP180;52585;47.566;19.056;2023-04-01T05:15:47;98934.40;;;9.90
65823;BMP180;52585;47.566;19.056;2023-04-01T05:18:13;98938.40;;;9.90
65823;BMP180;52585;47.566;19.056;2023-04-01T05:20:38;98940.40;;;9.80
65823;BMP180;52585;47.566;19.056;2023-04-01T05:23:04;98932.60;;;9.80
65823;BMP180;52585;47.566;19.056;2023-04-01T05:25:30;98933.60;;;9.82
65823;BMP180;52585;47.566;19.056;2023-04-01T05:27:55;98934.20;;;9.90
65823;BMP180;52585;47.566;19.056;2023-04-01T05:30:21;98937.00;;;9.90
65823;BMP180;52585;47.566;19.056;2023-04-01T05:32:47;98941.00;;;9.90
65823;BMP180;52585;47.566;19.056;2023-04-01T05:35:12;98943.20;;;9.90
65823;BMP180;52585;47.566;19.056;2023-04-01T05:37:38;98941.00;;;10.00
65823;BMP180;52585;47.566;19.056;2023-04-01T05:40:05;98940.40;;;10.00
65823;BMP180;52585;47.566;19.056;2023-04-01T05:42:30;98948.40;;;10.04
65823;BMP180;52585;47.566;19.056;2023-04-01T05:44:56;98943.20;;;10.10
65823;BMP180;52585;47.566;19.056;2023-04-01T05:47:22;98944.40;;;10.10
65823;BMP180;52585;47.566;19.056;2023-04-01T05:49:48;98945.40;;;10.16
65823;BMP180;52585;47.566;19.056;2023-04-01T05:52:14;98947.20;;;10.20
65823;BMP180;52585;47.566;19.056;2023-04-01T05:54:40;98943.80;;;10.22
65823;BMP180;52585;47.566;19.056;2023-04-01T05:57:05;98950.40;;;10.30
65823;BMP180;52585;47.566;19.056;2023-04-01T05:59:31;98945.40;;;10.34
65823;BMP180;52585;47.566;19.056;2023-04-01T06:01:57;98947.00;;;10.40
65823;BMP180;52585;47.566;19.056;2023-04-01T06:04:23;98943.60;;;10.50
65823;BMP180;52585;47.566;19.056;2023-04-01T06:06:50;98943.20;;;10.50
65823;BMP180;52585;47.566;19.056;2023-04-01T06:09:28;98947.40;;;10.60
65823;BMP180;52585;47.566;19.056;2023-04-01T06:21:00;98948.40;;;10.80
65823;BMP180;52585;47.566;19.056;2023-04-01T06:30:16;98941.80;;;11.00
65823;BMP180;52585;47.566;19.056;2023-04-01T06:33:00;98944.40;;;11.10
65823;BMP180;52585;47.566;19.056;2023-04-01T06:38:41;98955.00;;;11.20
65823;BMP180;52585;47.566;19.056;2023-04-01T06:53:20;98962.40;;;11.40
65823;BMP180;52585;47.566;19.056;2023-04-01T06:56:04;98963.60;;;11.40
65823;BMP180;52585;47.566;19.056;2023-04-01T06:59:17;98964.20;;;11.40
65823;BMP180;52585;47.566;19.056;2023-04-01T07:04:47;98970.80;;;11.50
65823;BMP180;52585;47.566;19.056;2023-04-01T07:07:41;98973.60;;;11.60
65823;BMP180;52585;47.566;19.056;2023-04-01T07:10:15;98969.80;;;11.60
65823;BMP180;52585;47.566;19.056;2023-04-01T07:12:56;98973.40;;;11.60
65823;BMP180;52585;47.566;19.056;2023-04-01T07:16:12;98966.40;;;11.64
65823;BMP180;52585;47.566;19.056;2023-04-01T07:18:52;98962.40;;;11.70
65823;BMP180;52585;47.566;19.056;2023-04-01T07:21:41;98963.60;;;11.70
65823;BMP180;52585;47.566;19.056;2023-04-01T07:24:36;98960.40;;;11.80
65823;BMP180;52585;47.566;19.056;2023-04-01T07:27:09;98961.40;;;11.80
65823;BMP180;52585;47.566;19.056;2023-04-01T07:29:35;98966.20;;;11.84
65823;BMP180;52585;47.566;19.056;2023-04-01T07:40:48;98974.20;;;12.00
65823;BMP180;52585;47.566;19.056;2023-04-01T07:49:07;98975.00;;;12.16
65823;BMP180;52585;47.566;19.056;2023-04-01T07:54:18;98973.00;;;12.20
65823;BMP180;52585;47.566;19.056;2023-04-01T07:56:58;98976.60;;;12.22
65823;BMP180;52585;47.566;19.056;2023-04-01T08:05:26;98980.60;;;12.30
65823;BMP180;52585;47.566;19.056;2023-04-01T08:10:46;98973.60;;;12.38
65823;BMP180;52585;47.566;19.056;2023-04-01T08:14:00;98974.00;;;12.40
65823;BMP180;52585;47.566;19.056;2023-04-01T08:16:50;98981.20;;;12.50
65823;BMP180;52585;47.566;19.056;2023-04-01T08:22:29;98979.20;;;12.60
65823;BMP180;52585;47.566;19.056;2023-04-01T08:24:59;98981.60;;;12.60
65823;BMP180;52585;47.566;19.056;2023-04-01T08:27:46;98980.60;;;12.68
65823;BMP180;52585;47.566;19.056;2023-04-01T08:30:29;98980.40;;;12.70
65823;BMP180;52585;47.566;19.056;2023-04-01T08:35:53;98977.40;;;12.70
65823;BMP180;52585;47.566;19.056;2023-04-01T08:38:42;98979.80;;;12.80
65823;BMP180;52585;47.566;19.056;2023-04-01T08:52:57;98976.60;;;12.90
65823;BMP180;52585;47.566;19.056;2023-04-01T08:55:51;98987.80;;;12.90
65823;BMP180;52585;47.566;19.056;2023-04-01T09:04:48;98994.20;;;12.94
65823;BMP180;52585;47.566;19.056;2023-04-01T09:25:59;98977.00;;;13.10
65823;BMP180;52585;47.566;19.056;2023-04-01T09:29:15;98973.00;;;13.12
65823;BMP180;52585;47.566;19.056;2023-04-01T09:34:53;98977.80;;;13.20
65823;BMP180;52585;47.566;19.056;2023-04-01T09:40:15;98986.80;;;13.10
65823;BMP180;52585;47.566;19.056;2023-04-01T09:46:30;98987.00;;;13.10
65823;BMP180;52585;47.566;19.056;2023-04-01T09:49:19;98983.00;;;13.10
65823;BMP180;52585;47.566;19.056;2023-04-01T09:55:21;98989.00;;;13.06
65823;BMP180;52585;47.566;19.056;2023-04-01T10:01:45;98989.60;;;13.00
65823;BMP180;52585;47.566;19.056;2023-04-01T10:10:44;98990.40;;;13.10
65823;BMP180;52585;47.566;19.056;2023-04-01T10:25:25;98995.80;;;13.10
65823;BMP180;52585;47.566;19.056;2023-04-01T10:31:42;98999.20;;;13.08
65823;BMP180;52585;47.566;19.056;2023-04-01T10:37:23;98992.80;;;13.00
65823;BMP180;52585;47.566;19.056;2023-04-01T10:43:43;98997.20;;;13.04
65823;BMP180;52585;47.566;19.056;2023-04-01T10:46:50;98998.00;;;13.08
65823;BMP180;52585;47.566;19.056;2023-04-01T10:50:11;98995.40;;;13.10
65823;BMP180;52585;47.566;19.056;2023-04-01T10:53:20;98988.40;;;13.10
65823;BMP180;52585;47.566;19.056;2023-04-01T11:04:51;98981.00;;;13.30
65823;BMP180;52585;47.566;19.056;2023-04-01T11:25:56;98972.60;;;13.60
65823;BMP180;52585;47.566;19.056;2023-04-01T11:29:15;98981.60;;;13.60
65823;BMP180;52585;47.566;19.056;2023-04-01T11:31:54;98989.40;;;13.60
65823;BMP180;52585;47.566;19.056;2023-04-01T11:40:29;98991.40;;;13.50
65823;BMP180;52585;47.566;19.056;2023-04-01T11:46:41;98998.00;;;13.40
65823;BMP180;52585;47.566;19.056;2023-04-01T11:49:40;99004.20;;;13.40
65823;BMP180;52585;47.566;19.056;2023-04-01T11:55:32;99001.00;;;13.30
65823;BMP180;52585;47.566;19.056;2023-04-01T12:12:48;98985.20;;;13.40
65823;BMP180;52585;47.566;19.056;2023-04-01T12:16:15;98986.20;;;13.50
65823;BMP180;52585;47.566;19.056;2023-04-01T12:28:19;98996.60;;;13.60
65823;BMP180;52585;47.566;19.056;2023-04-01T12:31:51;98994.60;;;13.60
65823;BMP180;52585;47.566;19.056;2023-04-01T12:38:19;98993.80;;;13.70
65823;BMP180;52585;47.566;19.056;2023-04-01T12:41:09;98995.60;;;13.70
65823;BMP180;52585;47.566;19.056;2023-04-01T12:52:13;98988.20;;;14.00
65823;BMP180;52585;47.566;19.056;2023-04-01T13:01:10;98989.60;;;14.10
65823;BMP180;52585;47.566;19.056;2023-04-01T13:10:08;98973.20;;;14.30
65823;BMP180;52585;47.566;19.056;2023-04-01T13:15:45;98973.80;;;14.40
65823;BMP180;52585;47.566;19.056;2023-04-01T13:18:28;98968.80;;;14.40
65823;BMP180;52585;47.566;19.056;2023-04-01T13:30:30;98972.20;;;14.70
65823;BMP180;52585;47.566;19.056;2023-04-01T13:39:07;98972.80;;;14.84
65823;BMP180;52585;47.566;19.056;2023-04-01T13:44:41;98972.40;;;14.94
65823;BMP180;52585;47.566;19.056;2023-04-01T13:50:39;98984.80;;;14.90
65823;BMP180;52585;47.566;19.056;2023-04-01T13:56:34;98984.40;;;14.90
65823;BMP180;52585;47.566;19.056;2023-04-01T14:20:37;98993.40;;;15.00
65823;BMP180;52585;47.566;19.056;2023-04-01T14:26:03;98989.40;;;15.00
65823;BMP180;52585;47.566;19.056;2023-04-01T14:28:43;98986.40;;;15.00
65823;BMP180;52585;47.566;19.056;2023-04-01T14:39:54;98989.60;;;15.00
65823;BMP180;52585;47.566;19.056;2023-04-01T14:45:28;98981.80;;;15.00
65823;BMP180;52585;47.566;19.056;2023-04-01T14:50:49;98977.80;;;15.00
65823;BMP180;52585;47.566;19.056;2023-04-01T14:55:57;98976.00;;;15.00
65823;BMP180;52585;47.566;19.056;2023-04-01T14:58:43;98984.40;;;15.00
65823;BMP180;52585;47.566;19.056;2023-04-01T15:10:02;98983.20;;;15.00
65823;BMP180;52585;47.566;19.056;2023-04-01T15:24:47;98991.20;;;15.06
65823;BMP180;52585;47.566;19.056;2023-04-01T15:42:16;98998.40;;;15.20
65823;BMP180;52585;47.566;19.056;2023-04-01T15:45:18;98994.20;;;15.14
65823;BMP180;52585;47.566;19.056;2023-04-01T15:51:11;98998.00;;;15.20
65823;BMP180;52585;47.566;19.056;2023-04-01T15:57:37;99003.00;;;15.12
65823;BMP180;52585;47.566;19.056;2023-04-01T16:12:40;99010.60;;;15.00
65823;BMP180;52585;47.566;19.056;2023-04-01T16:21:11;99019.00;;;15.00
65823;BMP180;52585;47.566;19.056;2023-04-01T16:23:50;99023.40;;;15.00
65823;BMP180;52585;47.566;19.056;2023-04-01T16:26:37;99026.20;;;15.00
65823;BMP180;52585;47.566;19.056;2023-04-01T16:29:32;99036.00;;;15.00
65823;BMP180;52585;47.566;19.056;2023-04-01T16:35:24;99036.40;;;15.00
65823;BMP180;52585;47.566;19.056;2023-04-01T16:43:50;99042.40;;;15.00
65823;BMP180;52585;47.566;19.056;2023-04-01T16:46:59;99045.80;;;15.00
65823;BMP180;52585;47.566;19.056;2023-04-01T16:49:42;99043.60;;;14.90
65823;BMP180;52585;47.566;19.056;2023-04-01T16:52:17;99044.00;;;14.90
65823;BMP180;52585;47.566;19.056;2023-04-01T16:55:18;99045.40;;;14.90
65823;BMP180;52585;47.566;19.056;2023-04-01T16:58:00;99047.60;;;14.80
65823;BMP180;52585;47.566;19.056;2023-04-01T17:00:47;99050.60;;;14.80
65823;BMP180;52585;47.566;19.056;2023-04-01T17:03:45;99057.00;;;14.80
65823;BMP180;52585;47.566;19.056;2023-04-01T17:06:37;99058.40;;;14.80
65823;BMP180;52585;47.566;19.056;2023-04-01T17:09:24;99066.60;;;14.80
65823;BMP180;52585;47.566;19.056;2023-04-01T17:12:28;99068.80;;;14.72
65823;BMP180;52585;47.566;19.056;2023-04-01T17:21:07;99071.40;;;14.70
65823;BMP180;52585;47.566;19.056;2023-04-01T17:26:55;99081.80;;;14.60
65823;BMP180;52585;47.566;19.056;2023-04-01T17:38:36;99086.20;;;14.50
65823;BMP180;52585;47.566;19.056;2023-04-01T17:50:24;99090.00;;;14.30
65823;BMP180;52585;47.566;19.056;2023-04-01T17:59:27;99103.40;;;14.20
65823;BMP180;52585;47.566;19.056;2023-04-01T18:27:43;99143.20;;;13.50
65823;BMP180;52585;47.566;19.056;2023-04-01T18:30:31;99142.40;;;13.42
65823;BMP180;52585;47.566;19.056;2023-04-01T18:33:31;99146.20;;;13.40
65823;BMP180;52585;47.566;19.056;2023-04-01T18:42:38;99152.20;;;13.20
65823;BMP180;52585;47.566;19.056;2023-04-01T18:45:20;99157.60;;;13.10
65823;BMP180;52585;47.566;19.056;2023-04-01T18:48:37;99157.40;;;13.00
65823;BMP180;52585;47.566;19.056;2023-04-01T18:54:21;99166.20;;;12.90
65823;BMP180;52585;47.566;19.056;2023-04-01T18:56:49;99168.20;;;12.80
65823;BMP180;52585;47.566;19.056;2023-04-01T18:59:54;99167.40;;;12.80
65823;BMP180;52585;47.566;19.056;2023-04-01T19:05:20;99169.00;;;12.64
65823;BMP180;52585;47.566;19.056;2023-04-01T19:07:55;99172.60;;;12.60
65823;BMP180;52585;47.566;19.056;2023-04-01T19:19:01;99168.40;;;12.30
65823;BMP180;52585;47.566;19.056;2023-04-01T19:28:25;99165.60;;;12.12
65823;BMP180;52585;47.566;19.056;2023-04-01T19:34:21;99170.60;;;12.00
65823;BMP180;52585;47.566;19.056;2023-04-01T19:37:27;99172.00;;;12.00
65823;BMP180;52585;47.566;19.056;2023-04-01T19:46:45;99185.60;;;11.86
65823;BMP180;52585;47.566;19.056;2023-04-01T19:49:24;99184.60;;;11.80
65823;BMP180;52585;47.566;19.056;2023-04-01T20:00:52;99193.80;;;11.88
65823;BMP180;52585;47.566;19.056;2023-04-01T20:03:51;99192.00;;;11.90
65823;BMP180;52585;47.566;19.056;2023-04-01T20:10:01;99186.00;;;11.90
65823;BMP180;52585;47.566;19.056;2023-04-01T20:27:08;99187.00;;;11.80
65823;BMP180;52585;47.566;19.056;2023-04-01T20:29:40;99175.60;;;11.80
65823;BMP180;52585;47.566;19.056;2023-04-01T20:44:59;99184.00;;;11.60
65823;BMP180;52585;47.566;19.056;2023-04-01T20:53:27;99201.00;;;11.70
65823;BMP180;52585;47.566;19.056;2023-04-01T20:59:22;99207.00;;;11.66
65823;BMP180;52585;47.566;19.056;2023-04-01T21:11:08;99214.60;;;11.50
65823;BMP180;52585;47.566;19.056;2023-04-01T21:14:24;99217.60;;;11.40
65823;BMP180;52585;47.566;19.056;2023-04-01T21:23:21;99216.80;;;11.30
65823;BMP180;52585;47.566;19.056;2023-04-01T21:26:04;99216.00;;;11.30
65823;BMP180;52585;47.566;19.056;2023-04-01T21:37:48;99232.60;;;11.06
65823;BMP180;52585;47.566;19.056;2023-04-01T21:46:10;99229.20;;;10.90
65823;BMP180;52585;47.566;19.056;2023-04-01T22:03:16;99230.00;;;10.70
65823;BMP180;52585;47.566;19.056;2023-04-01T22:11:37;99233.60;;;10.80
65823;BMP180;52585;47.566;19.056;2023-04-01T22:20:46;99240.00;;;10.82
65823;BMP180;52585;47.566;19.056;2023-04-01T22:23:35;99236.80;;;10.80
65823;BMP180;52585;47.566;19.056;2023-04-01T22:26:16;99239.80;;;10.80
65823;BMP180;52585;47.566;19.056;2023-04-01T22:31:55;99250.20;;;10.80
65823;BMP180;52585;47.566;19.056;2023-04-01T22:34:46;99250.00;;;10.80
65823;BMP180;52585;47.566;19.056;2023-04-01T22:37:37;99250.40;;;10.80
65823;BMP180;52585;47.566;19.056;2023-04-01T22:43:25;99259.00;;;10.80
65823;BMP180;52585;47.566;19.056;2023-04-01T22:46:09;99262.00;;;10.90
65823;BMP180;52585;47.566;19.056;2023-04-01T22:49:41;99271.60;;;10.90
65823;BMP180;52585;47.566;19.056;2023-04-01T22:52:29;99275.40;;;10.90
65823;BMP180;52585;47.566;19.056;2023-04-01T22:55:04;99278.60;;;10.90
65823;BMP180;52585;47.566;19.056;2023-04-01T22:57:46;99279.40;;;10.90
65823;BMP180;52585;47.566;19.056;2023-04-01T23:00:26;99286.60;;;10.90
65823;BMP180;52585;47.566;19.056;2023-04-01T23:03:29;99286.60;;;10.90
65823;BMP180;52585;47.566;19.056;2023-04-01T23:06:03;99288.60;;;10.90
65823;BMP180;52585;47.566;19.056;2023-04-01T23:11:28;99289.00;;;10.82
65823;BMP180;52585;47.566;19.056;2023-04-01T23:20:00;99295.40;;;10.70
65823;BMP180;52585;47.566;19.056;2023-04-01T23:23:19;99296.00;;;10.70
65823;BMP180;52585;47.566;19.056;2023-04-01T23:28:56;99299.60;;;10.60
65823;BMP180;52585;47.566;19.056;2023-04-01T23:31:38;99304.40;;;10.60
65823;BMP180;52585;47.566;19.056;2023-04-01T23:36:45;99308.80;;;10.50
65823;BMP180;52585;47.566;19.056;2023-04-01T23:39:25;99307.80;;;10.50
65823;BMP180;52585;47.566;19.056;2023-04-01T23:42:05;99310.80;;;10.50
65823;BMP180;52585;47.566;19.056;2023-04-01T23:44:34;99307.00;;;10.50
65823;BMP180;52585;47.566;19.056;2023-04-01T23:47:02;99305.20;;;10.50
65823;BMP180;52585;47.566;19.056;2023-04-01T23:50:16;99306.40;;;10.50
65823;BMP180;52585;47.566;19.056;2023-04-01T23:52:49;99311.60;;;10.50
65823;BMP180;52585;47.566;19.056;2023-04-01T23:55:31;99312.40;;;10.50
